createdAt,value
2024-02-12T00:00:20.301Z,10.25
2024-02-12T00:03:08.154Z,10.25
2024-02-12T00:05:38.790Z,10.25
2024-02-12T00:08:09.098Z,10.24
2024-02-12T00:10:36.780Z,10.23
2024-02-12T00:13:04.442Z,10.23
2024-02-12T00:15:32.111Z,10.24
2024-02-12T00:18:00.839Z,10.24
2024-02-12T00:20:30.594Z,10.26
2024-02-12T00:22:59.071Z,10.25
2024-02-12T00:25:26.789Z,10.31
2024-02-12T00:27:54.320Z,10.26
2024-02-12T00:30:21.482Z,10.24
2024-02-12T00:32:50.431Z,10.26
2024-02-12T00:35:17.458Z,10.30
2024-02-12T00:37:44.514Z,10.33
2024-02-12T00:40:13.292Z,10.35
2024-02-12T00:42:41.499Z,10.35
2024-02-12T00:45:09.945Z,10.33
2024-02-12T00:47:37.849Z,10.33
2024-02-12T00:50:09.563Z,10.28
2024-02-12T00:52:39.161Z,10.32
2024-02-12T00:55:08.819Z,10.33
2024-02-12T00:57:48.730Z,10.36
2024-02-12T01:00:16.739Z,10.32
2024-02-12T01:03:07.273Z,10.28
2024-02-12T01:05:34.598Z,10.21
2024-02-12T01:08:02.207Z,10.18
2024-02-12T01:10:29.211Z,10.15
2024-02-12T01:12:56.310Z,10.08
2024-02-12T01:15:27.651Z,10.03
2024-02-12T01:18:15.103Z,10.05
2024-02-12T01:20:45.286Z,10.04
2024-02-12T01:23:13.585Z,10.03
2024-02-12T01:25:44.188Z,10.03
2024-02-12T01:28:11.584Z,10.05
2024-02-12T01:30:38.580Z,10.06
2024-02-12T01:33:07.985Z,10.06
2024-02-12T01:35:35.891Z,10.09
2024-02-12T01:38:03.021Z,10.10
2024-02-12T01:40:29.918Z,10.11
2024-02-12T01:42:56.731Z,10.14
2024-02-12T01:45:28.780Z,10.15
2024-02-12T01:48:04.232Z,10.15
2024-02-12T01:50:34.146Z,10.18
2024-02-12T01:53:03.347Z,10.15
2024-02-12T01:55:31.179Z,10.09
2024-02-12T01:57:58.868Z,10.13
2024-02-12T02:00:29.412Z,10.17
2024-02-12T02:03:16.684Z,10.11
2024-02-12T02:05:45.841Z,10.12
2024-02-12T02:08:13.604Z,10.07
2024-02-12T02:10:40.528Z,10.06
2024-02-12T02:13:08.018Z,10.07
2024-02-12T02:15:56.356Z,10.05
2024-02-12T02:18:23.351Z,10.04
2024-02-12T02:21:14.522Z,10.00
2024-02-12T02:23:43.352Z,9.68
2024-02-12T02:26:10.438Z,9.89
2024-02-12T02:28:39.722Z,9.89
2024-02-12T02:31:06.708Z,9.86
2024-02-12T02:33:37.008Z,9.84
2024-02-12T02:36:04.396Z,9.78
2024-02-12T02:38:33.003Z,9.74
2024-02-12T02:41:00.122Z,9.71
2024-02-12T02:43:27.430Z,9.64
2024-02-12T02:45:56.101Z,9.60
2024-02-12T02:48:23.232Z,9.56
2024-02-12T02:50:50.782Z,9.54
2024-02-12T02:53:17.745Z,9.52
2024-02-12T02:55:45.350Z,9.49
2024-02-12T02:58:13.419Z,9.45
2024-02-12T03:00:41.105Z,9.41
2024-02-12T03:03:10.258Z,9.39
2024-02-12T03:05:39.974Z,9.37
2024-02-12T03:08:08.321Z,9.34
2024-02-12T03:10:38.364Z,9.26
2024-02-12T03:13:06.795Z,9.23
2024-02-12T03:15:38.230Z,9.21
2024-02-12T03:18:06.035Z,9.17
2024-02-12T03:20:33.695Z,9.17
2024-02-12T03:23:00.990Z,9.14
2024-02-12T03:25:28.072Z,9.12
2024-02-12T03:27:54.896Z,9.08
2024-02-12T03:30:23.808Z,9.06
2024-02-12T03:32:50.842Z,9.01
2024-02-12T03:35:17.887Z,8.98
2024-02-12T03:37:56.662Z,8.95
2024-02-12T03:40:28.250Z,8.95
2024-02-12T03:42:56.272Z,8.94
2024-02-12T03:45:23.267Z,8.94
2024-02-12T03:47:51.247Z,8.94
2024-02-12T03:50:37.734Z,8.92
2024-02-12T03:53:26.361Z,8.90
2024-02-12T03:56:12.491Z,8.88
2024-02-12T03:58:58.891Z,8.85
2024-02-12T04:01:27.589Z,8.83
2024-02-12T04:03:54.966Z,8.83
2024-02-12T04:06:22.146Z,8.79
2024-02-12T04:08:51.099Z,8.77
2024-02-12T04:11:18.131Z,8.75
2024-02-12T04:13:47.739Z,8.72
2024-02-12T04:16:15.958Z,8.68
2024-02-12T04:18:47.949Z,8.69
2024-02-12T04:21:17.574Z,8.70
2024-02-12T04:23:47.100Z,8.68
2024-02-12T04:26:14.702Z,8.67
2024-02-12T04:28:44.727Z,8.67
2024-02-12T04:31:12.814Z,8.67
2024-02-12T04:33:41.131Z,8.62
2024-02-12T04:36:11.335Z,8.61
2024-02-12T04:38:38.371Z,8.60
2024-02-12T04:41:07.043Z,8.58
2024-02-12T04:43:37.240Z,8.57
2024-02-12T04:46:04.136Z,8.58
2024-02-12T04:48:32.534Z,8.57
2024-02-12T04:51:00.517Z,8.56
2024-02-12T04:53:27.613Z,8.54
2024-02-12T04:55:54.551Z,8.54
2024-02-12T04:58:21.610Z,8.53
2024-02-12T05:00:48.556Z,8.50
2024-02-12T05:03:17.309Z,8.47
2024-02-12T05:05:44.509Z,8.47
2024-02-12T05:08:11.509Z,8.47
2024-02-12T05:10:39.878Z,8.45
2024-02-12T05:13:18.498Z,8.45
2024-02-12T05:15:46.114Z,8.44
2024-02-12T05:18:31.707Z,8.45
2024-02-12T05:21:17.537Z,8.44
2024-02-12T05:23:44.396Z,8.42
2024-02-12T05:26:13.289Z,8.41
2024-02-12T05:28:40.103Z,8.42
2024-02-12T05:31:06.928Z,8.41
2024-02-12T05:33:34.011Z,8.41
2024-02-12T05:36:01.000Z,8.42
2024-02-12T05:38:28.135Z,8.43
2024-02-12T05:40:55.098Z,8.46
2024-02-12T05:43:22.468Z,8.47
2024-02-12T05:45:49.424Z,8.49
2024-02-12T05:48:16.606Z,8.48
2024-02-12T05:50:43.596Z,8.46
2024-02-12T05:53:11.067Z,8.46
2024-02-12T05:55:40.781Z,8.43
2024-02-12T05:58:10.996Z,8.44
2024-02-12T06:00:38.019Z,8.46
2024-02-12T06:03:05.310Z,8.46
2024-02-12T06:05:33.135Z,8.45
2024-02-12T06:08:00.325Z,8.45
2024-02-12T06:10:28.360Z,8.45
2024-02-12T06:12:55.250Z,8.45
2024-02-12T06:15:22.260Z,8.47
2024-02-12T06:18:01.594Z,8.45
2024-02-12T06:20:28.855Z,8.51
2024-02-12T06:22:55.888Z,8.53
2024-02-12T06:25:24.775Z,8.55
2024-02-12T06:27:51.881Z,8.59
2024-02-12T06:30:18.915Z,8.62
2024-02-12T06:32:45.967Z,8.66
2024-02-12T06:35:12.911Z,8.72
2024-02-12T06:37:52.749Z,8.77
2024-02-12T06:40:22.272Z,8.84
2024-02-12T06:42:49.660Z,8.93
2024-02-12T06:45:18.209Z,9.06
2024-02-12T06:47:45.949Z,9.20
2024-02-12T06:50:16.030Z,9.33
2024-02-12T06:53:02.894Z,9.50
2024-02-12T06:55:30.286Z,9.64
2024-02-12T06:57:58.352Z,9.79
2024-02-12T07:00:25.405Z,9.91
2024-02-12T07:02:52.251Z,10.02
2024-02-12T07:05:19.837Z,10.13
2024-02-12T07:07:50.002Z,10.29
2024-02-12T07:10:17.154Z,10.45
2024-02-12T07:12:46.967Z,10.63
2024-02-12T07:15:15.803Z,10.75
2024-02-12T07:17:43.498Z,10.82
2024-02-12T07:20:11.193Z,10.83
2024-02-12T07:22:38.992Z,10.80
2024-02-12T07:25:06.679Z,10.81
2024-02-12T07:27:38.155Z,10.81
2024-02-12T07:30:08.999Z,10.88
2024-02-12T07:32:51.244Z,10.91
2024-02-12T07:35:18.591Z,10.93
2024-02-12T07:37:45.731Z,10.88
2024-02-12T07:40:12.767Z,10.94
2024-02-12T07:42:40.897Z,11.02
2024-02-12T07:45:08.967Z,11.07
2024-02-12T07:47:40.453Z,11.08
2024-02-12T07:50:07.921Z,11.09
2024-02-12T07:52:39.095Z,11.07
2024-02-12T07:55:08.910Z,11.12
2024-02-12T07:57:55.041Z,11.17
2024-02-12T08:00:22.028Z,11.30
2024-02-12T08:02:49.282Z,11.39
2024-02-12T08:05:17.275Z,11.50
2024-02-12T08:07:57.463Z,11.55
2024-02-12T08:10:32.425Z,11.60
2024-02-12T08:12:59.478Z,11.55
2024-02-12T08:15:26.293Z,11.61
2024-02-12T08:18:14.070Z,11.71
2024-02-12T08:20:41.638Z,11.82
2024-02-12T08:23:08.872Z,11.89
2024-02-12T08:25:39.515Z,11.94
2024-02-12T08:28:09.053Z,11.96
2024-02-12T08:30:36.180Z,11.97
2024-02-12T08:33:03.368Z,12.02
2024-02-12T08:35:30.445Z,12.08
2024-02-12T08:38:04.449Z,12.15
2024-02-12T08:40:31.932Z,12.29
2024-02-12T08:43:00.113Z,12.41
2024-02-12T08:45:27.337Z,12.52
2024-02-12T08:48:08.228Z,12.56
2024-02-12T08:50:36.131Z,12.54
2024-02-12T08:53:03.389Z,12.55
2024-02-12T08:55:30.994Z,12.61
2024-02-12T08:57:58.309Z,12.61
2024-02-12T09:00:25.362Z,12.49
2024-02-12T09:03:06.059Z,12.49
2024-02-12T09:05:33.561Z,12.48
2024-02-12T09:08:00.858Z,12.41
2024-02-12T09:10:28.532Z,12.34
2024-02-12T09:12:55.954Z,12.32
2024-02-12T09:15:23.890Z,12.37
2024-02-12T09:17:51.564Z,12.34
2024-02-12T09:20:18.643Z,12.31
2024-02-12T09:22:46.223Z,12.35
2024-02-12T09:25:14.885Z,12.34
2024-02-12T09:27:47.817Z,12.32
2024-02-12T09:30:17.677Z,12.28
2024-02-12T09:32:46.001Z,12.30
2024-02-12T09:35:14.086Z,12.32
2024-02-12T09:37:41.810Z,12.35
2024-02-12T09:40:09.372Z,12.43
2024-02-12T09:42:56.163Z,12.47
2024-02-12T09:45:26.348Z,12.41
2024-02-12T09:47:54.841Z,12.50
2024-02-12T09:50:27.561Z,12.47
2024-02-12T09:52:58.141Z,12.43
2024-02-12T09:55:26.475Z,12.45
2024-02-12T09:57:53.391Z,12.52
2024-02-12T10:00:23.409Z,12.62
2024-02-12T10:03:13.652Z,12.73
2024-02-12T10:06:00.758Z,12.77
2024-02-12T10:08:48.764Z,12.96
2024-02-12T10:11:36.989Z,13.13
2024-02-12T10:14:32.884Z,13.26
2024-02-12T10:17:20.208Z,13.52
2024-02-12T10:20:11.023Z,13.61
2024-02-12T10:23:01.111Z,13.74
2024-02-12T10:25:52.280Z,13.82
2024-02-12T10:28:39.169Z,13.76
2024-02-12T10:31:26.633Z,13.78
2024-02-12T10:34:18.827Z,13.84
2024-02-12T10:37:07.597Z,13.91
2024-02-12T10:39:56.058Z,14.04
2024-02-12T10:42:50.497Z,14.16
2024-02-12T10:45:37.286Z,14.30
2024-02-12T10:48:24.396Z,14.35
2024-02-12T10:51:11.927Z,14.45
2024-02-12T10:54:00.498Z,14.48
2024-02-12T10:56:43.062Z,14.57
2024-02-12T10:59:15.104Z,14.42
2024-02-12T11:01:44.029Z,14.39
2024-02-12T11:04:17.282Z,14.42
2024-02-12T11:06:44.905Z,14.42
2024-02-12T11:09:12.963Z,14.36
2024-02-12T11:11:47.405Z,14.34
2024-02-12T11:14:17.033Z,14.42
2024-02-12T11:16:44.775Z,14.32
2024-02-12T11:19:21.642Z,14.23
2024-02-12T11:21:55.938Z,14.16
2024-02-12T11:24:23.274Z,13.88
2024-02-12T11:26:54.265Z,14.28
2024-02-12T11:29:22.105Z,14.37
2024-02-12T11:31:49.105Z,14.42
2024-02-12T11:34:20.219Z,14.34
2024-02-12T11:37:01.571Z,14.31
2024-02-12T11:39:30.480Z,14.52
2024-02-12T11:42:01.447Z,14.57
2024-02-12T11:44:29.697Z,14.72
2024-02-12T11:47:03.435Z,14.82
2024-02-12T11:49:30.670Z,14.95
2024-02-12T11:51:58.875Z,15.12
2024-02-12T11:54:28.822Z,15.13
2024-02-12T11:56:55.829Z,15.17
2024-02-12T11:59:23.550Z,14.99
2024-02-12T12:01:50.932Z,14.96
2024-02-12T12:04:19.036Z,14.87
2024-02-12T12:06:46.359Z,14.86
2024-02-12T12:09:14.240Z,14.97
2024-02-12T12:11:49.536Z,15.05
2024-02-12T12:14:17.220Z,15.15
2024-02-12T12:17:27.221Z,15.30
2024-02-12T12:19:31.721Z,14.97
2024-02-12T12:21:58.602Z,14.73
2024-02-12T12:24:25.445Z,14.63
2024-02-12T12:26:52.344Z,14.71
2024-02-12T12:29:27.699Z,14.84
2024-02-12T12:31:56.190Z,14.85
2024-02-12T12:34:23.234Z,14.63
2024-02-12T12:36:50.145Z,14.70
2024-02-12T12:39:20.599Z,14.77
2024-02-12T12:41:47.698Z,14.61
2024-02-12T12:44:14.595Z,14.63
2024-02-12T12:46:41.894Z,14.49
2024-02-12T12:49:14.151Z,14.51
2024-02-12T12:51:43.458Z,14.21
2024-02-12T12:54:12.854Z,14.00
2024-02-12T12:56:40.240Z,13.92
2024-02-12T12:59:07.293Z,13.93
2024-02-12T13:01:35.118Z,14.00
2024-02-12T13:04:04.786Z,14.01
2024-02-12T13:06:33.811Z,14.01
2024-02-12T13:09:03.727Z,13.87
2024-02-12T13:11:32.565Z,13.86
2024-02-12T13:13:59.403Z,13.76
2024-02-12T13:16:26.464Z,13.65
2024-02-12T13:18:54.317Z,13.76
2024-02-12T13:21:21.385Z,13.86
2024-02-12T13:23:48.536Z,13.92
2024-02-12T13:26:15.788Z,13.96
2024-02-12T13:28:43.916Z,13.97
2024-02-12T13:31:13.363Z,14.03
2024-02-12T13:33:43.037Z,14.16
2024-02-12T13:36:11.812Z,14.08
2024-02-12T13:38:41.162Z,14.10
2024-02-12T13:41:12.162Z,14.11
2024-02-12T13:43:39.522Z,14.21
2024-02-12T13:46:07.684Z,14.21
2024-02-12T13:48:34.810Z,14.11
2024-02-12T13:51:02.169Z,14.23
2024-02-12T13:53:29.889Z,14.35
2024-02-12T13:55:56.872Z,14.43
2024-02-12T13:58:24.950Z,14.42
2024-02-12T14:01:09.135Z,14.29
2024-02-12T14:03:41.383Z,14.19
2024-02-12T14:06:09.186Z,13.88
2024-02-12T14:08:38.788Z,13.78
2024-02-12T14:11:06.436Z,13.75
2024-02-12T14:13:33.598Z,13.74
2024-02-12T14:16:07.947Z,13.75
2024-02-12T14:18:39.030Z,13.73
2024-02-12T14:21:10.253Z,13.70
2024-02-12T14:23:38.051Z,13.64
2024-02-12T14:26:05.651Z,13.59
2024-02-12T14:28:35.473Z,13.57
2024-02-12T14:31:02.371Z,13.61
2024-02-12T14:33:30.557Z,13.61
2024-02-12T14:35:58.538Z,13.54
2024-02-12T14:38:26.154Z,13.54
2024-02-12T14:40:53.922Z,13.57
2024-02-12T14:43:22.732Z,13.62
2024-02-12T14:45:50.663Z,13.58
2024-02-12T14:48:38.240Z,13.54
2024-02-12T14:51:06.187Z,13.43
2024-02-12T14:53:34.589Z,13.35
2024-02-12T14:56:02.026Z,13.40
2024-02-12T14:58:29.537Z,13.43
2024-02-12T15:00:57.122Z,13.48
2024-02-12T15:03:26.170Z,13.30
2024-02-12T15:05:53.342Z,13.28
2024-02-12T15:08:21.060Z,13.21
2024-02-12T15:10:50.456Z,13.17
2024-02-12T15:13:17.989Z,13.12
2024-02-12T15:15:48.053Z,13.02
2024-02-12T15:18:17.652Z,12.98
2024-02-12T15:20:47.414Z,13.07
2024-02-12T15:23:16.122Z,13.03
2024-02-12T15:25:45.028Z,13.05
2024-02-12T15:28:16.434Z,13.00
2024-02-12T15:30:47.060Z,13.00
2024-02-12T15:33:34.303Z,13.00
2024-02-12T15:36:02.387Z,13.07
2024-02-12T15:38:33.820Z,13.07
2024-02-12T15:41:25.166Z,13.12
2024-02-12T15:43:52.106Z,13.20
2024-02-12T15:46:19.237Z,13.20
2024-02-12T15:48:46.637Z,13.20
2024-02-12T15:51:15.126Z,13.18
2024-02-12T15:53:45.848Z,13.14
2024-02-12T15:56:16.508Z,13.07
2024-02-12T15:58:44.774Z,13.02
2024-02-12T16:01:12.369Z,12.95
2024-02-12T16:03:40.879Z,12.85
2024-02-12T16:06:11.298Z,12.83
2024-02-12T16:08:51.087Z,12.85
2024-02-12T16:11:21.066Z,12.90
2024-02-12T16:13:51.852Z,12.93
2024-02-12T16:16:20.067Z,12.98
2024-02-12T16:18:51.623Z,12.96
2024-02-12T16:21:18.817Z,12.98
2024-02-12T16:23:46.542Z,13.01
2024-02-12T16:26:13.643Z,13.01
2024-02-12T16:28:40.765Z,12.95
2024-02-12T16:31:07.886Z,12.89
2024-02-12T16:33:38.561Z,12.83
2024-02-12T16:36:10.085Z,12.79
2024-02-12T16:38:38.029Z,12.75
2024-02-12T16:41:07.079Z,12.72
2024-02-12T16:43:34.383Z,12.71
2024-02-12T16:46:03.803Z,12.69
2024-02-12T16:48:30.942Z,12.71
2024-02-12T16:50:58.057Z,12.71
2024-02-12T16:53:26.470Z,12.68
2024-02-12T16:55:53.469Z,12.65
2024-02-12T16:58:20.343Z,12.64
2024-02-12T17:00:47.437Z,12.62
2024-02-12T17:03:19.752Z,12.53
2024-02-12T17:05:47.623Z,12.53
2024-02-12T17:08:14.615Z,12.53
2024-02-12T17:10:41.590Z,12.56
2024-02-12T17:13:12.895Z,12.55
2024-02-12T17:15:43.778Z,12.57
2024-02-12T17:18:12.051Z,12.63
2024-02-12T17:20:40.309Z,12.63
2024-02-12T17:23:09.414Z,12.63
2024-02-12T17:25:40.130Z,12.63
2024-02-12T17:28:10.846Z,12.61
2024-02-12T17:30:38.048Z,12.60
2024-02-12T17:33:25.010Z,12.56
2024-02-12T17:35:52.116Z,12.57
2024-02-12T17:38:19.583Z,12.56
2024-02-12T17:40:46.505Z,12.53
2024-02-12T17:43:23.954Z,12.48
2024-02-12T17:45:51.726Z,12.48
2024-02-12T17:48:19.098Z,12.49
2024-02-12T17:50:46.170Z,12.50
2024-02-12T17:53:13.061Z,12.51
2024-02-12T17:55:40.027Z,12.50
2024-02-12T17:58:06.953Z,12.49
2024-02-12T18:00:35.030Z,12.44
2024-02-12T18:03:01.864Z,12.37
2024-02-12T18:05:28.948Z,12.33
2024-02-12T18:07:56.614Z,12.30
2024-02-12T18:10:23.687Z,12.28
2024-02-12T18:12:51.568Z,12.27
2024-02-12T18:15:19.716Z,12.22
2024-02-12T18:17:49.403Z,12.24
2024-02-12T18:20:18.160Z,12.16
2024-02-12T18:22:45.244Z,12.12
2024-02-12T18:25:13.251Z,12.12
2024-02-12T18:27:50.902Z,12.15
2024-02-12T18:30:18.561Z,12.15
2024-02-12T18:32:49.152Z,12.14
2024-02-12T18:35:16.687Z,12.17
2024-02-12T18:37:43.739Z,12.17
2024-02-12T18:40:18.279Z,12.18
2024-02-12T18:42:48.003Z,12.17
2024-02-12T18:45:19.260Z,12.19
2024-02-12T18:47:49.171Z,12.17
2024-02-12T18:50:17.319Z,12.15
2024-02-12T18:52:47.584Z,12.11
2024-02-12T18:55:17.181Z,12.06
2024-02-12T18:57:48.278Z,12.04
2024-02-12T19:00:16.436Z,12.05
2024-02-12T19:02:45.370Z,12.06
2024-02-12T19:05:12.818Z,12.06
2024-02-12T19:07:40.666Z,12.08
2024-02-12T19:10:12.630Z,12.07
2024-02-12T19:12:43.211Z,11.96
2024-02-12T19:15:15.643Z,11.88
2024-02-12T19:17:55.311Z,11.84
2024-02-12T19:20:22.283Z,11.83
2024-02-12T19:22:49.180Z,11.80
2024-02-12T19:25:17.385Z,11.78
2024-02-12T19:27:45.978Z,11.78
2024-02-12T19:30:15.047Z,11.80
2024-02-12T19:32:55.944Z,11.60
2024-02-12T19:35:26.498Z,11.50
2024-02-12T19:37:53.337Z,11.47
2024-02-12T19:40:20.217Z,11.49
2024-02-12T19:42:47.725Z,11.49
2024-02-12T19:45:14.689Z,11.41
2024-02-12T19:47:42.045Z,11.25
2024-02-12T19:50:09.650Z,11.21
2024-02-12T19:52:36.677Z,11.19
2024-02-12T19:55:03.658Z,11.22
2024-02-12T19:57:33.072Z,11.28
2024-02-12T20:00:01.546Z,11.27
2024-02-12T20:02:36.962Z,11.24
2024-02-12T20:05:04.425Z,11.18
2024-02-12T20:07:34.351Z,11.13
2024-02-12T20:10:03.591Z,11.01
2024-02-12T20:12:33.367Z,11.06
2024-02-12T20:15:00.244Z,11.04
2024-02-12T20:17:27.265Z,11.01
2024-02-12T20:19:54.147Z,10.96
2024-02-12T20:22:21.404Z,10.90
2024-02-12T20:24:48.244Z,10.82
2024-02-12T20:27:16.119Z,10.80
2024-02-12T20:29:51.891Z,10.81
2024-02-12T20:32:21.752Z,10.79
2024-02-12T20:34:48.831Z,10.80
2024-02-12T20:37:15.743Z,10.84
2024-02-12T20:39:45.871Z,10.85
2024-02-12T20:42:12.680Z,10.87
2024-02-12T20:44:39.708Z,10.88
2024-02-12T20:47:06.769Z,10.85
2024-02-12T20:49:37.176Z,10.81
2024-02-12T20:52:05.218Z,10.74
2024-02-12T20:54:36.248Z,10.69
2024-02-12T20:57:04.062Z,10.67
2024-02-12T20:59:31.908Z,10.67
2024-02-12T21:01:58.941Z,10.62
2024-02-12T21:04:26.625Z,10.59
2024-02-12T21:06:53.668Z,10.57
2024-02-12T21:09:21.929Z,10.54
2024-02-12T21:11:49.168Z,10.57
2024-02-12T21:14:16.281Z,10.55
2024-02-12T21:16:44.438Z,10.53
2024-02-12T21:19:11.341Z,10.55
2024-02-12T21:21:39.242Z,10.59
2024-02-12T21:24:09.968Z,10.59
2024-02-12T21:26:36.979Z,10.56
2024-02-12T21:29:05.480Z,10.57
2024-02-12T21:31:33.701Z,10.53
2024-02-12T21:34:01.246Z,10.50
2024-02-12T21:36:30.086Z,10.48
2024-02-12T21:38:58.162Z,10.38
2024-02-12T21:41:30.992Z,10.45
2024-02-12T21:43:58.015Z,10.39
2024-02-12T21:46:30.131Z,10.38
2024-02-12T21:48:57.269Z,10.31
2024-02-12T21:51:24.062Z,10.23
2024-02-12T21:53:51.193Z,10.17
2024-02-12T21:56:18.196Z,10.11
2024-02-12T21:58:45.263Z,9.97
2024-02-12T22:01:14.462Z,9.91
2024-02-12T22:03:41.642Z,9.82
2024-02-12T22:06:09.284Z,9.79
2024-02-12T22:08:37.152Z,9.76
2024-02-12T22:11:04.337Z,9.73
2024-02-12T22:13:31.153Z,9.64
2024-02-12T22:15:58.069Z,9.60
2024-02-12T22:18:25.076Z,9.59
2024-02-12T22:20:52.386Z,9.54
2024-02-12T22:23:19.797Z,9.53
2024-02-12T22:25:46.693Z,9.49
2024-02-12T22:28:13.468Z,9.49
2024-02-12T22:30:43.440Z,9.49
2024-02-12T22:33:10.575Z,9.55
2024-02-12T22:35:37.882Z,9.54
2024-02-12T22:38:05.053Z,9.59
2024-02-12T22:40:32.466Z,9.61
2024-02-12T22:42:59.527Z,9.67
2024-02-12T22:45:27.017Z,9.72
2024-02-12T22:48:08.319Z,9.73
2024-02-12T22:50:35.470Z,9.77
2024-02-12T22:53:02.404Z,9.76
2024-02-12T22:55:31.046Z,9.77
2024-02-12T22:57:58.499Z,9.81
2024-02-12T23:00:35.346Z,9.85
2024-02-12T23:03:06.519Z,9.85
2024-02-12T23:05:34.804Z,9.85
2024-02-12T23:08:01.973Z,9.80
2024-02-12T23:10:29.048Z,9.79
2024-02-12T23:12:56.374Z,9.84
2024-02-12T23:15:23.315Z,9.81
2024-02-12T23:18:01.114Z,9.71
2024-02-12T23:20:29.110Z,9.72
2024-02-12T23:22:56.945Z,9.72
2024-02-12T23:25:27.404Z,9.72
2024-02-12T23:27:54.939Z,9.71
2024-02-12T23:30:22.971Z,9.71
2024-02-12T23:32:50.459Z,9.71
2024-02-12T23:35:18.198Z,9.67
2024-02-12T23:37:46.071Z,9.60
2024-02-12T23:40:13.096Z,9.54
2024-02-12T23:42:43.612Z,9.48
2024-02-12T23:45:11.338Z,9.46
2024-02-12T23:47:58.310Z,9.42
2024-02-12T23:50:25.283Z,9.40
2024-02-12T23:52:53.187Z,9.38
2024-02-12T23:55:20.568Z,9.25
2024-02-12T23:58:07.239Z,9.22
